sensor_id;sensor_type;location;lat;lon;timestamp;pressure;altitude;pressure_sealevel;temperature;humidity
72294;BME280;60632;49.236;8.398;2022-12-10T00:02:49;99479.84;;;4.32;70.25
72294;BME280;60632;49.236;8.398;2022-12-10T00:05:49;99479.88;;;4.25;70.33
72294;BME280;60632;49.236;8.398;2022-12-10T00:08:49;99484.25;;;4.19;70.62
72294;BME280;60632;49.236;8.398;2022-12-10T00:11:50;99470.03;;;4.19;70.39
72294;BME280;60632;49.236;8.398;2022-12-10T00:14:50;99472.53;;;4.14;70.72
72294;BME280;60632;49.236;8.398;2022-12-10T00:17:51;99475.03;;;4.09;70.62
72294;BME280;60632;49.236;8.398;2022-12-10T00:20:51;99477.31;;;4.05;70.54
72294;BME280;60632;49.236;8.398;2022-12-10T00:23:51;99481.22;;;4.03;70.67
72294;BME280;60632;49.236;8.398;2022-12-10T00:26:52;99474.66;;;3.98;70.71
72294;BME280;60632;49.236;8.398;2022-12-10T00:29:52;99484.97;;;4.02;70.87
72294;BME280;60632;49.236;8.398;2022-12-10T00:32:52;99476.91;;;4.02;70.53
72294;BME280;60632;49.236;8.398;2022-12-10T00:35:53;99485.81;;;3.95;70.57
72294;BME280;60632;49.236;8.398;2022-12-10T00:38:53;99474.47;;;3.93;70.55
72294;BME280;60632;49.236;8.398;2022-12-10T00:41:53;99475.09;;;3.95;70.71
72294;BME280;60632;49.236;8.398;2022-12-10T00:44:54;99470.13;;;3.99;70.64
72294;BME280;60632;49.236;8.398;2022-12-10T00:47:54;99477.34;;;3.98;70.27
72294;BME280;60632;49.236;8.398;2022-12-10T00:50:56;99490.34;;;3.95;70.45
72294;BME280;60632;49.236;8.398;2022-12-10T00:53:57;99489.53;;;3.94;70.74
72294;BME280;60632;49.236;8.398;2022-12-10T00:56:58;99496.53;;;3.95;70.71
72294;BME280;60632;49.236;8.398;2022-12-10T00:59:58;99498.16;;;3.96;70.74
72294;BME280;60632;49.236;8.398;2022-12-10T01:02:59;99502.72;;;3.96;70.68
72294;BME280;60632;49.236;8.398;2022-12-10T01:06:09;99494.66;;;3.96;70.44
72294;BME280;60632;49.236;8.398;2022-12-10T01:09:11;99498.16;;;3.96;70.60
72294;BME280;60632;49.236;8.398;2022-12-10T01:12:12;99501.88;;;3.95;70.60
72294;BME280;60632;49.236;8.398;2022-12-10T01:15:13;99503.09;;;4.00;70.49
72294;BME280;60632;49.236;8.398;2022-12-10T01:18:13;99504.97;;;3.99;70.76
72294;BME280;60632;49.236;8.398;2022-12-10T01:21:18;99508.06;;;3.96;70.42
72294;BME280;60632;49.236;8.398;2022-12-10T01:24:19;99515.91;;;3.97;70.70
72294;BME280;60632;49.236;8.398;2022-12-10T01:27:19;99514.44;;;4.02;70.59
72294;BME280;60632;49.236;8.398;2022-12-10T01:30:20;99511.34;;;4.05;70.65
72294;BME280;60632;49.236;8.398;2022-12-10T01:33:20;99516.47;;;4.06;70.25
72294;BME280;60632;49.236;8.398;2022-12-10T01:36:22;99514.63;;;4.07;70.44
72294;BME280;60632;49.236;8.398;2022-12-10T01:39:23;99514.44;;;4.08;70.25
72294;BME280;60632;49.236;8.398;2022-12-10T01:42:23;99515.88;;;4.04;70.38
72294;BME280;60632;49.236;8.398;2022-12-10T01:45:23;99515.28;;;4.02;70.56
72294;BME280;60632;49.236;8.398;2022-12-10T01:48:24;99523.31;;;4.02;70.52
72294;BME280;60632;49.236;8.398;2022-12-10T01:51:25;99535.66;;;4.03;70.56
72294;BME280;60632;49.236;8.398;2022-12-10T01:54:27;99543.31;;;4.00;70.40
72294;BME280;60632;49.236;8.398;2022-12-10T01:57:29;99528.91;;;4.01;70.42
72294;BME280;60632;49.236;8.398;2022-12-10T02:00:30;99532.41;;;4.01;70.48
72294;BME280;60632;49.236;8.398;2022-12-10T02:03:38;99548.09;;;3.97;70.74
72294;BME280;60632;49.236;8.398;2022-12-10T02:16:21;99542.09;;;3.95;70.78
72294;BME280;60632;49.236;8.398;2022-12-10T02:23:01;99543.34;;;3.86;70.72
72294;BME280;60632;49.236;8.398;2022-12-10T02:26:11;99532.00;;;3.84;70.88
72294;BME280;60632;49.236;8.398;2022-12-10T02:29:19;99540.28;;;3.83;70.75
72294;BME280;60632;49.236;8.398;2022-12-10T02:32:22;99534.28;;;3.87;70.73
72294;BME280;60632;49.236;8.398;2022-12-10T02:35:24;99532.00;;;3.84;70.68
72294;BME280;60632;49.236;8.398;2022-12-10T02:38:27;99532.47;;;3.81;71.07
72294;BME280;60632;49.236;8.398;2022-12-10T02:41:30;99535.75;;;3.77;71.06
72294;BME280;60632;49.236;8.398;2022-12-10T02:44:32;99533.72;;;3.72;70.94
72294;BME280;60632;49.236;8.398;2022-12-10T02:47:34;99526.09;;;3.69;71.06
72294;BME280;60632;49.236;8.398;2022-12-10T02:50:35;99526.91;;;3.69;71.02
72294;BME280;60632;49.236;8.398;2022-12-10T02:53:40;99521.31;;;3.71;70.84
72294;BME280;60632;49.236;8.398;2022-12-10T02:56:43;99516.38;;;3.68;70.92
72294;BME280;60632;49.236;8.398;2022-12-10T03:09:05;99516.22;;;3.63;70.97
72294;BME280;60632;49.236;8.398;2022-12-10T03:12:17;99513.94;;;3.60;71.03
72294;BME280;60632;49.236;8.398;2022-12-10T03:15:19;99518.91;;;3.56;71.26
72294;BME280;60632;49.236;8.398;2022-12-10T03:18:21;99518.09;;;3.56;71.04
72294;BME280;60632;49.236;8.398;2022-12-10T03:21:24;99522.59;;;3.62;71.05
72294;BME280;60632;49.236;8.398;2022-12-10T03:24:26;99517.25;;;3.62;70.98
72294;BME280;60632;49.236;8.398;2022-12-10T03:27:27;99517.03;;;3.57;70.82
72294;BME280;60632;49.236;8.398;2022-12-10T03:30:30;99518.91;;;3.49;70.95
72294;BME280;60632;49.236;8.398;2022-12-10T03:33:32;99521.78;;;3.55;71.01
72294;BME280;60632;49.236;8.398;2022-12-10T03:36:32;99520.13;;;3.54;70.90
72294;BME280;60632;49.236;8.398;2022-12-10T03:39:33;99526.72;;;3.58;71.04
72294;BME280;60632;49.236;8.398;2022-12-10T03:42:37;99520.94;;;3.61;70.80
72294;BME280;60632;49.236;8.398;2022-12-10T03:45:37;99525.06;;;3.63;70.85
72294;BME280;60632;49.236;8.398;2022-12-10T03:48:37;99515.97;;;3.64;70.82
72294;BME280;60632;49.236;8.398;2022-12-10T03:51:38;99521.16;;;3.66;70.63
72294;BME280;60632;49.236;8.398;2022-12-10T03:54:38;99520.53;;;3.57;70.89
72294;BME280;60632;49.236;8.398;2022-12-10T03:57:38;99523.03;;;3.52;71.00
72294;BME280;60632;49.236;8.398;2022-12-10T04:00:39;99533.31;;;3.48;71.14
72294;BME280;60632;49.236;8.398;2022-12-10T04:03:39;99534.16;;;3.49;71.11
72294;BME280;60632;49.236;8.398;2022-12-10T04:06:40;99532.09;;;3.44;71.03
72294;BME280;60632;49.236;8.398;2022-12-10T04:09:41;99537.44;;;3.44;71.11
72294;BME280;60632;49.236;8.398;2022-12-10T04:12:41;99534.78;;;3.38;71.25
72294;BME280;60632;49.236;8.398;2022-12-10T04:15:41;99539.09;;;3.45;70.82
72294;BME280;60632;49.236;8.398;2022-12-10T04:19:02;99530.88;;;3.40;70.74
72294;BME280;60632;49.236;8.398;2022-12-10T04:22:03;99545.72;;;3.43;70.93
72294;BME280;60632;49.236;8.398;2022-12-10T04:25:22;99538.28;;;3.45;70.83
72294;BME280;60632;49.236;8.398;2022-12-10T04:28:42;99544.66;;;3.50;70.90
72294;BME280;60632;49.236;8.398;2022-12-10T04:31:42;99540.75;;;3.53;70.79
72294;BME280;60632;49.236;8.398;2022-12-10T04:34:43;99549.81;;;3.52;70.83
72294;BME280;60632;49.236;8.398;2022-12-10T04:37:43;99551.06;;;3.49;71.06
72294;BME280;60632;49.236;8.398;2022-12-10T04:40:43;99565.47;;;3.48;70.78
72294;BME280;60632;49.236;8.398;2022-12-10T04:43:44;99568.56;;;3.52;70.69
72294;BME280;60632;49.236;8.398;2022-12-10T04:46:44;99559.91;;;3.50;70.78
72294;BME280;60632;49.236;8.398;2022-12-10T04:49:48;99568.78;;;3.50;70.66
72294;BME280;60632;49.236;8.398;2022-12-10T04:52:48;99563.41;;;3.50;70.88
72294;BME280;60632;49.236;8.398;2022-12-10T04:55:49;99571.03;;;3.47;70.82
72294;BME280;60632;49.236;8.398;2022-12-10T04:58:49;99567.13;;;3.43;70.81
72294;BME280;60632;49.236;8.398;2022-12-10T05:01:49;99558.88;;;3.38;71.36
72294;BME280;60632;49.236;8.398;2022-12-10T05:04:50;99565.28;;;3.43;71.09
72294;BME280;60632;49.236;8.398;2022-12-10T05:07:50;99560.53;;;3.45;70.94
72294;BME280;60632;49.236;8.398;2022-12-10T05:10:50;99566.91;;;3.44;71.28
72294;BME280;60632;49.236;8.398;2022-12-10T05:13:52;99564.44;;;3.49;70.92
72294;BME280;60632;49.236;8.398;2022-12-10T05:16:52;99570.81;;;3.48;70.74
72294;BME280;60632;49.236;8.398;2022-12-10T05:19:52;99576.19;;;3.48;70.80
72294;BME280;60632;49.236;8.398;2022-12-10T05:22:53;99578.66;;;3.50;71.02
72294;BME280;60632;49.236;8.398;2022-12-10T05:26:20;99585.66;;;3.44;70.79
72294;BME280;60632;49.236;8.398;2022-12-10T05:29:21;99583.63;;;3.46;70.96
72294;BME280;60632;49.236;8.398;2022-12-10T05:32:21;99577.03;;;3.49;70.69
72294;BME280;60632;49.236;8.398;2022-12-10T05:35:21;99574.94;;;3.44;70.58
72294;BME280;60632;49.236;8.398;2022-12-10T05:38:22;99576.00;;;3.37;70.72
72294;BME280;60632;49.236;8.398;2022-12-10T05:41:23;99581.34;;;3.37;71.04
72294;BME280;60632;49.236;8.398;2022-12-10T05:44:24;99577.22;;;3.34;70.95
72294;BME280;60632;49.236;8.398;2022-12-10T05:47:24;99589.56;;;3.28;71.15
72294;BME280;60632;49.236;8.398;2022-12-10T05:50:25;99591.84;;;3.25;71.32
72294;BME280;60632;49.236;8.398;2022-12-10T05:53:25;99589.97;;;3.19;71.15
72294;BME280;60632;49.236;8.398;2022-12-10T05:56:25;99591.44;;;3.15;71.17
72294;BME280;60632;49.236;8.398;2022-12-10T05:59:26;99595.13;;;3.14;71.18
72294;BME280;60632;49.236;8.398;2022-12-10T06:02:26;99589.78;;;3.14;71.50
72294;BME280;60632;49.236;8.398;2022-12-10T06:05:26;99591.44;;;3.15;71.42
72294;BME280;60632;49.236;8.398;2022-12-10T06:08:26;99600.50;;;3.14;71.18
72294;BME280;60632;49.236;8.398;2022-12-10T06:11:27;99605.63;;;3.22;70.81
72294;BME280;60632;49.236;8.398;2022-12-10T06:14:27;99609.13;;;3.22;70.93
72294;BME280;60632;49.236;8.398;2022-12-10T06:17:28;99609.13;;;3.16;71.15
72294;BME280;60632;49.236;8.398;2022-12-10T06:20:28;99616.56;;;3.14;71.17
72294;BME280;60632;49.236;8.398;2022-12-10T06:23:28;99614.28;;;3.11;71.00
72294;BME280;60632;49.236;8.398;2022-12-10T06:26:29;99619.44;;;3.12;71.38
72294;BME280;60632;49.236;8.398;2022-12-10T06:29:29;99622.91;;;3.13;71.08
72294;BME280;60632;49.236;8.398;2022-12-10T06:32:29;99623.53;;;3.08;71.37
72294;BME280;60632;49.236;8.398;2022-12-10T06:35:30;99615.69;;;3.07;71.37
72294;BME280;60632;49.236;8.398;2022-12-10T06:38:30;99629.72;;;3.09;71.29
72294;BME280;60632;49.236;8.398;2022-12-10T06:41:31;99632.63;;;3.14;71.12
72294;BME280;60632;49.236;8.398;2022-12-10T06:44:31;99628.09;;;3.21;70.81
72294;BME280;60632;49.236;8.398;2022-12-10T06:47:32;99635.72;;;3.17;70.73
72294;BME280;60632;49.236;8.398;2022-12-10T06:50:32;99638.41;;;3.17;70.97
72294;BME280;60632;49.236;8.398;2022-12-10T06:53:33;99642.94;;;3.17;70.94
72294;BME280;60632;49.236;8.398;2022-12-10T06:56:34;99643.75;;;3.17;70.91
72294;BME280;60632;49.236;8.398;2022-12-10T06:59:35;99649.50;;;3.21;70.69
72294;BME280;60632;49.236;8.398;2022-12-10T07:02:35;99649.91;;;3.18;70.90
72294;BME280;60632;49.236;8.398;2022-12-10T07:05:35;99644.34;;;3.13;71.06
72294;BME280;60632;49.236;8.398;2022-12-10T07:08:36;99656.31;;;3.10;71.33
72294;BME280;60632;49.236;8.398;2022-12-10T07:11:36;99656.91;;;3.12;71.13
72294;BME280;60632;49.236;8.398;2022-12-10T07:14:37;99664.75;;;3.14;71.31
72294;BME280;60632;49.236;8.398;2022-12-10T07:17:38;99664.13;;;3.12;71.07
72294;BME280;60632;49.236;8.398;2022-12-10T07:20:38;99672.16;;;3.12;71.20
72294;BME280;60632;49.236;8.398;2022-12-10T07:23:40;99668.44;;;3.13;70.99
72294;BME280;60632;49.236;8.398;2022-12-10T07:26:41;99675.47;;;3.14;71.05
72294;BME280;60632;49.236;8.398;2022-12-10T07:29:43;99671.53;;;3.16;70.96
72294;BME280;60632;49.236;8.398;2022-12-10T07:32:43;99680.59;;;3.15;71.02
72294;BME280;60632;49.236;8.398;2022-12-10T07:35:44;99684.91;;;3.16;70.82
72294;BME280;60632;49.236;8.398;2022-12-10T07:38:44;99687.81;;;3.15;71.20
72294;BME280;60632;49.236;8.398;2022-12-10T07:41:47;99690.06;;;3.11;71.06
72294;BME280;60632;49.236;8.398;2022-12-10T07:44:47;99687.00;;;3.14;71.06
72294;BME280;60632;49.236;8.398;2022-12-10T07:47:48;99704.50;;;3.17;70.81
72294;BME280;60632;49.236;8.398;2022-12-10T07:50:54;99712.31;;;3.18;70.91
72294;BME280;60632;49.236;8.398;2022-12-10T07:53:55;99701.84;;;3.17;71.06
72294;BME280;60632;49.236;8.398;2022-12-10T07:56:55;99699.34;;;3.22;70.97
72294;BME280;60632;49.236;8.398;2022-12-10T07:59:56;99694.00;;;3.22;70.58
72294;BME280;60632;49.236;8.398;2022-12-10T08:02:56;99701.59;;;3.12;71.12
72294;BME280;60632;49.236;8.398;2022-12-10T08:06:01;99705.09;;;3.12;71.06
72294;BME280;60632;49.236;8.398;2022-12-10T08:09:01;99701.38;;;3.13;70.85
72294;BME280;60632;49.236;8.398;2022-12-10T08:12:02;99701.59;;;3.12;70.84
72294;BME280;60632;49.236;8.398;2022-12-10T08:15:02;99709.84;;;3.10;70.85
72294;BME280;60632;49.236;8.398;2022-12-10T08:18:03;99701.38;;;3.07;71.24
72294;BME280;60632;49.236;8.398;2022-12-10T08:21:04;99708.38;;;3.08;71.03
72294;BME280;60632;49.236;8.398;2022-12-10T08:24:04;99708.00;;;3.11;71.00
72294;BME280;60632;49.236;8.398;2022-12-10T08:27:05;99714.16;;;3.11;70.83
72294;BME280;60632;49.236;8.398;2022-12-10T08:30:05;99716.63;;;3.13;70.94
72294;BME280;60632;49.236;8.398;2022-12-10T08:33:05;99717.03;;;3.10;70.98
72294;BME280;60632;49.236;8.398;2022-12-10T08:36:06;99720.09;;;3.07;70.98
72294;BME280;60632;49.236;8.398;2022-12-10T08:39:07;99723.41;;;3.09;70.97
72294;BME280;60632;49.236;8.398;2022-12-10T08:42:07;99722.38;;;3.10;71.13
72294;BME280;60632;49.236;8.398;2022-12-10T08:45:08;99717.03;;;3.10;70.97
72294;BME280;60632;49.236;8.398;2022-12-10T08:48:08;99718.47;;;3.06;71.06
72294;BME280;60632;49.236;8.398;2022-12-10T08:51:10;99729.41;;;3.11;70.97
72294;BME280;60632;49.236;8.398;2022-12-10T08:54:10;99731.84;;;3.06;70.79
72294;BME280;60632;49.236;8.398;2022-12-10T08:57:11;99730.59;;;3.01;70.96
72294;BME280;60632;49.236;8.398;2022-12-10T09:00:11;99740.91;;;3.04;70.88
72294;BME280;60632;49.236;8.398;2022-12-10T09:03:13;99738.44;;;3.10;70.95
72294;BME280;60632;49.236;8.398;2022-12-10T09:06:14;99738.25;;;3.11;70.80
72294;BME280;60632;49.236;8.398;2022-12-10T09:09:15;99742.78;;;3.11;71.10
72294;BME280;60632;49.236;8.398;2022-12-10T09:12:16;99741.59;;;3.20;70.77
72294;BME280;60632;49.236;8.398;2022-12-10T09:15:16;99743.22;;;3.21;70.58
72294;BME280;60632;49.236;8.398;2022-12-10T09:18:16;99744.28;;;3.20;70.66
72294;BME280;60632;49.236;8.398;2022-12-10T09:21:17;99753.31;;;3.19;70.67
72294;BME280;60632;49.236;8.398;2022-12-10T09:24:17;99751.03;;;3.16;70.69
72294;BME280;60632;49.236;8.398;2022-12-10T09:27:18;99761.13;;;3.14;70.79
72294;BME280;60632;49.236;8.398;2022-12-10T09:30:18;99763.16;;;3.12;70.94
72294;BME280;60632;49.236;8.398;2022-12-10T09:33:18;99753.72;;;3.16;70.92
72294;BME280;60632;49.236;8.398;2022-12-10T09:36:19;99754.97;;;3.20;70.71
72294;BME280;60632;49.236;8.398;2022-12-10T09:39:20;99761.59;;;3.24;70.67
72294;BME280;60632;49.236;8.398;2022-12-10T09:42:34;99763.63;;;3.22;71.02
72294;BME280;60632;49.236;8.398;2022-12-10T09:45:47;99764.22;;;3.17;70.65
72294;BME280;60632;49.236;8.398;2022-12-10T09:52:00;99770.63;;;3.23;71.03
72294;BME280;60632;49.236;8.398;2022-12-10T09:55:03;99764.47;;;3.29;70.94
72294;BME280;60632;49.236;8.398;2022-12-10T09:58:05;99774.19;;;3.37;70.78
72294;BME280;60632;49.236;8.398;2022-12-10T10:01:06;99779.34;;;3.45;70.42
72294;BME280;60632;49.236;8.398;2022-12-10T10:04:12;99774.41;;;3.48;70.66
72294;BME280;60632;49.236;8.398;2022-12-10T10:07:23;99775.28;;;3.56;70.16
72294;BME280;60632;49.236;8.398;2022-12-10T10:13:35;99776.91;;;3.57;70.55
72294;BME280;60632;49.236;8.398;2022-12-10T10:19:36;99775.47;;;3.54;70.39
72294;BME280;60632;49.236;8.398;2022-12-10T10:22:40;99780.84;;;3.61;70.21
72294;BME280;60632;49.236;8.398;2022-12-10T10:25:40;99771.16;;;3.66;70.44
72294;BME280;60632;49.236;8.398;2022-12-10T10:28:41;99776.53;;;3.73;70.14
72294;BME280;60632;49.236;8.398;2022-12-10T10:31:42;99780.69;;;3.82;70.19
72294;BME280;60632;49.236;8.398;2022-12-10T10:34:43;99785.03;;;3.96;69.79
72294;BME280;60632;49.236;8.398;2022-12-10T10:37:43;99774.09;;;4.05;69.88
72294;BME280;60632;49.236;8.398;2022-12-10T10:40:44;99776.56;;;4.13;69.96
72294;BME280;60632;49.236;8.398;2022-12-10T10:43:46;99777.41;;;4.20;69.47
72294;BME280;60632;49.236;8.398;2022-12-10T10:46:48;99780.69;;;4.35;69.61
72294;BME280;60632;49.236;8.398;2022-12-10T10:49:49;99782.94;;;4.52;69.33
72294;BME280;60632;49.236;8.398;2022-12-10T10:52:49;99779.66;;;4.56;68.94
72294;BME280;60632;49.236;8.398;2022-12-10T10:55:50;99780.47;;;4.57;69.28
72294;BME280;60632;49.236;8.398;2022-12-10T10:59:01;99772.81;;;4.60;69.17
72294;BME280;60632;49.236;8.398;2022-12-10T11:02:15;99770.53;;;4.64;69.33
72294;BME280;60632;49.236;8.398;2022-12-10T11:05:20;99783.16;;;4.57;69.28
72294;BME280;60632;49.236;8.398;2022-12-10T11:08:23;99784.00;;;4.51;69.43
72294;BME280;60632;49.236;8.398;2022-12-10T11:11:35;99794.31;;;4.54;69.60
72294;BME280;60632;49.236;8.398;2022-12-10T11:14:39;99798.03;;;4.59;69.47
72294;BME280;60632;49.236;8.398;2022-12-10T11:17:47;99796.38;;;4.52;69.49
72294;BME280;60632;49.236;8.398;2022-12-10T11:20:59;99786.88;;;4.56;69.41
72294;BME280;60632;49.236;8.398;2022-12-10T11:24:00;99796.34;;;4.65;69.31
72294;BME280;60632;49.236;8.398;2022-12-10T11:27:08;99792.41;;;4.74;69.19
72294;BME280;60632;49.236;8.398;2022-12-10T11:30:26;99795.50;;;4.78;69.22
72294;BME280;60632;49.236;8.398;2022-12-10T11:33:32;99791.16;;;4.83;69.11
72294;BME280;60632;49.236;8.398;2022-12-10T11:36:39;99786.81;;;4.82;69.16
72294;BME280;60632;49.236;8.398;2022-12-10T11:43:09;99783.34;;;4.75;69.31
72294;BME280;60632;49.236;8.398;2022-12-10T11:46:36;99787.06;;;4.67;69.34
72294;BME280;60632;49.236;8.398;2022-12-10T11:49:40;99782.31;;;4.70;69.24
72294;BME280;60632;49.236;8.398;2022-12-10T12:05:07;99804.41;;;4.52;69.64
72294;BME280;60632;49.236;8.398;2022-12-10T12:14:39;99816.56;;;4.67;69.32
72294;BME280;60632;49.236;8.398;2022-12-10T12:17:42;99820.31;;;4.66;69.27
72294;BME280;60632;49.236;8.398;2022-12-10T12:20:45;99816.41;;;4.62;69.43
72294;BME280;60632;49.236;8.398;2022-12-10T12:27:13;99816.81;;;4.53;69.75
72294;BME280;60632;49.236;8.398;2022-12-10T12:30:17;99813.31;;;4.59;69.67
72294;BME280;60632;49.236;8.398;2022-12-10T12:36:29;99814.31;;;4.58;69.53
72294;BME280;60632;49.236;8.398;2022-12-10T12:42:44;99809.59;;;4.60;69.48
72294;BME280;60632;49.236;8.398;2022-12-10T12:45:47;99810.63;;;4.65;69.36
72294;BME280;60632;49.236;8.398;2022-12-10T12:48:51;99817.19;;;4.76;69.23
72294;BME280;60632;49.236;8.398;2022-12-10T12:55:14;99811.38;;;4.93;69.14
72294;BME280;60632;49.236;8.398;2022-12-10T12:58:22;99813.63;;;4.96;68.82
72294;BME280;60632;49.236;8.398;2022-12-10T13:01:32;99821.06;;;4.94;69.04
72294;BME280;60632;49.236;8.398;2022-12-10T13:04:34;99825.00;;;4.98;68.91
72294;BME280;60632;49.236;8.398;2022-12-10T13:07:35;99831.78;;;5.00;68.85
72294;BME280;60632;49.236;8.398;2022-12-10T13:10:45;99820.63;;;5.03;69.02
72294;BME280;60632;49.236;8.398;2022-12-10T13:23:29;99829.50;;;5.04;69.16
72294;BME280;60632;49.236;8.398;2022-12-10T13:26:30;99840.25;;;5.04;68.84
72294;BME280;60632;49.236;8.398;2022-12-10T13:29:43;99835.50;;;5.06;69.05
72294;BME280;60632;49.236;8.398;2022-12-10T13:32:45;99841.88;;;5.18;68.91
72294;BME280;60632;49.236;8.398;2022-12-10T13:45:27;99866.59;;;5.92;68.03
72294;BME280;60632;49.236;8.398;2022-12-10T13:48:29;99864.44;;;6.14;67.77
72294;BME280;60632;49.236;8.398;2022-12-10T13:51:54;99871.22;;;6.16;67.73
72294;BME280;60632;49.236;8.398;2022-12-10T13:55:02;99874.72;;;6.17;67.82
72294;BME280;60632;49.236;8.398;2022-12-10T13:58:22;99878.94;;;6.06;67.90
72294;BME280;60632;49.236;8.398;2022-12-10T14:04:41;99881.19;;;5.64;68.60
72294;BME280;60632;49.236;8.398;2022-12-10T14:07:46;99888.09;;;5.47;68.82
72294;BME280;60632;49.236;8.398;2022-12-10T14:10:48;99884.81;;;5.31;69.02
72294;BME280;60632;49.236;8.398;2022-12-10T14:13:52;99892.50;;;5.28;69.10
72294;BME280;60632;49.236;8.398;2022-12-10T14:16:53;99896.41;;;5.25;69.15
72294;BME280;60632;49.236;8.398;2022-12-10T14:19:53;99893.97;;;5.17;69.07
72294;BME280;60632;49.236;8.398;2022-12-10T14:22:54;99901.59;;;5.07;69.29
72294;BME280;60632;49.236;8.398;2022-12-10T14:26:21;99905.16;;;5.01;69.30
72294;BME280;60632;49.236;8.398;2022-12-10T14:29:25;99916.09;;;4.93;69.31
72294;BME280;60632;49.236;8.398;2022-12-10T14:32:36;99918.16;;;4.90;69.34
72294;BME280;60632;49.236;8.398;2022-12-10T14:35:37;99923.75;;;4.89;69.47
72294;BME280;60632;49.236;8.398;2022-12-10T14:38:37;99912.38;;;4.87;69.39
72294;BME280;60632;49.236;8.398;2022-12-10T14:41:38;99926.03;;;4.85;68.95
72294;BME280;60632;49.236;8.398;2022-12-10T14:44:39;99923.94;;;4.74;69.22
72294;BME280;60632;49.236;8.398;2022-12-10T14:47:40;99925.63;;;4.68;69.30
72294;BME280;60632;49.236;8.398;2022-12-10T14:50:40;99934.69;;;4.61;69.50
72294;BME280;60632;49.236;8.398;2022-12-10T14:53:40;99931.59;;;4.64;69.66
72294;BME280;60632;49.236;8.398;2022-12-10T14:56:41;99940.28;;;4.66;69.42
72294;BME280;60632;49.236;8.398;2022-12-10T15:00:16;99939.84;;;4.69;69.38
72294;BME280;60632;49.236;8.398;2022-12-10T15:03:08;99958.22;;;4.59;69.53
72294;BME280;60632;49.236;8.398;2022-12-10T15:06:09;99951.00;;;4.53;69.62
72294;BME280;60632;49.236;8.398;2022-12-10T15:09:14;99960.06;;;4.52;69.69
72294;BME280;60632;49.236;8.398;2022-12-10T15:12:37;99954.50;;;4.53;69.59
72294;BME280;60632;49.236;8.398;2022-12-10T15:15:36;99960.91;;;4.59;69.44
72294;BME280;60632;49.236;8.398;2022-12-10T15:18:37;99958.41;;;4.64;69.33
72294;BME280;60632;49.236;8.398;2022-12-10T15:21:42;99968.13;;;4.65;69.11
72294;BME280;60632;49.236;8.398;2022-12-10T15:24:43;99955.97;;;4.69;68.99
72294;BME280;60632;49.236;8.398;2022-12-10T15:27:51;99960.69;;;4.74;68.74
72294;BME280;60632;49.236;8.398;2022-12-10T15:30:54;99974.53;;;4.64;69.21
72294;BME280;60632;49.236;8.398;2022-12-10T15:34:05;99964.00;;;4.62;69.01
72294;BME280;60632;49.236;8.398;2022-12-10T15:37:11;99969.56;;;4.67;68.99
72294;BME280;60632;49.236;8.398;2022-12-10T15:40:24;99968.56;;;4.75;68.89
72294;BME280;60632;49.236;8.398;2022-12-10T15:46:25;99979.72;;;4.65;68.88
72294;BME280;60632;49.236;8.398;2022-12-10T15:49:25;99974.34;;;4.72;68.96
72294;BME280;60632;49.236;8.398;2022-12-10T15:52:27;99979.31;;;4.75;68.74
72294;BME280;60632;49.236;8.398;2022-12-10T15:55:28;99982.16;;;4.67;68.97
72294;BME280;60632;49.236;8.398;2022-12-10T15:58:28;99975.97;;;4.60;69.06
72294;BME280;60632;49.236;8.398;2022-12-10T16:01:29;99986.69;;;4.53;68.99
72294;BME280;60632;49.236;8.398;2022-12-10T16:04:29;99981.75;;;4.50;69.25
72294;BME280;60632;49.236;8.398;2022-12-10T16:07:29;99986.28;;;4.50;69.27
72294;BME280;60632;49.236;8.398;2022-12-10T16:10:32;99981.31;;;4.47;69.22
72294;BME280;60632;49.236;8.398;2022-12-10T16:13:34;99986.69;;;4.47;69.40
72294;BME280;60632;49.236;8.398;2022-12-10T16:16:36;99984.19;;;4.45;69.26
72294;BME280;60632;49.236;8.398;2022-12-10T16:19:41;99998.81;;;4.36;69.21
72294;BME280;60632;49.236;8.398;2022-12-10T16:22:41;100004.97;;;4.23;69.34
72294;BME280;60632;49.236;8.398;2022-12-10T16:25:42;100000.19;;;4.12;69.75
72294;BME280;60632;49.236;8.398;2022-12-10T16:28:44;100010.47;;;4.02;69.85
72294;BME280;60632;49.236;8.398;2022-12-10T16:31:45;100008.81;;;4.01;69.99
72294;BME280;60632;49.236;8.398;2022-12-10T16:34:45;100014.34;;;3.92;69.99
72294;BME280;60632;49.236;8.398;2022-12-10T16:37:48;100006.28;;;3.86;70.01
72294;BME280;60632;49.236;8.398;2022-12-10T16:40:54;100005.03;;;3.82;70.13
72294;BME280;60632;49.236;8.398;2022-12-10T16:43:57;100014.06;;;3.81;70.19
72294;BME280;60632;49.236;8.398;2022-12-10T16:46:58;100007.88;;;3.80;70.08
72294;BME280;60632;49.236;8.398;2022-12-10T16:49:58;100003.56;;;3.79;70.19
72294;BME280;60632;49.236;8.398;2022-12-10T16:52:58;100003.97;;;3.83;69.75
72294;BME280;60632;49.236;8.398;2022-12-10T16:56:01;100005.44;;;3.85;69.83
72294;BME280;60632;49.236;8.398;2022-12-10T16:59:02;100016.16;;;3.85;69.54
72294;BME280;60632;49.236;8.398;2022-12-10T17:02:02;100018.81;;;3.79;69.53
72294;BME280;60632;49.236;8.398;2022-12-10T17:05:02;100013.16;;;3.67;69.85
72294;BME280;60632;49.236;8.398;2022-12-10T17:08:03;100015.38;;;3.57;70.32
72294;BME280;60632;49.236;8.398;2022-12-10T17:11:13;100025.41;;;3.48;70.22
72294;BME280;60632;49.236;8.398;2022-12-10T17:14:33;100022.91;;;3.40;70.35
72294;BME280;60632;49.236;8.398;2022-12-10T17:17:35;100017.50;;;3.33;70.66
72294;BME280;60632;49.236;8.398;2022-12-10T17:20:35;100023.63;;;3.27;70.89
72294;BME280;60632;49.236;8.398;2022-12-10T17:23:35;100028.34;;;3.25;70.47
72294;BME280;60632;49.236;8.398;2022-12-10T17:26:37;100025.63;;;3.18;70.89
72294;BME280;60632;49.236;8.398;2022-12-10T17:29:39;100019.94;;;3.07;71.01
72294;BME280;60632;49.236;8.398;2022-12-10T17:32:41;100025.84;;;2.95;70.99
72294;BME280;60632;49.236;8.398;2022-12-10T17:35:42;100027.69;;;2.95;71.07
72294;BME280;60632;49.236;8.398;2022-12-10T17:38:43;100027.91;;;3.00;71.11
72294;BME280;60632;49.236;8.398;2022-12-10T17:41:43;100024.28;;;3.08;70.72
72294;BME280;60632;49.236;8.398;2022-12-10T17:44:43;100038.31;;;3.10;70.57
72294;BME280;60632;49.236;8.398;2022-12-10T17:47:44;100040.59;;;3.13;70.62
72294;BME280;60632;49.236;8.398;2022-12-10T17:50:45;100039.59;;;3.14;70.38
72294;BME280;60632;49.236;8.398;2022-12-10T17:53:45;100046.59;;;3.15;70.42